Terminal Aerodrome Forecast
Issued by NWS Blacksburg, VA

Current Version | Previous Version | Graphics & Text | Print | Product List | Glossary On
Versions: 1 2 3 4 5 6 7 8 9 10 11 12 13 14 15 16 17 18 19 20 21 22 23 24 25 26 27 28 29 30
000
FTUS41 KRNK 222209 AAA
TAFBLF
TAF AMD
KBLF 222209Z 2222/2318 24010KT P6SM -SHRA SCT050 OVC100
      TEMPO 2223/2301 3SM TSRA OVC015CB
     FM230300 25003KT 6SM BR SCT005 BKN100
     FM230600 00000KT 3SM BR OVC006
     FM231000 28003KT 2SM BR OVC005
     FM231400 28005KT P6SM OVC015=

USA.gov is the U.S. government's official web portal to all federal, state and local government web resources and services.